EGMCEGNT

Guest
Details From EGMC - Southend
To EGNT - Newcastle
Flight Number -
Tags Generated
Created
Modified
Stats Distance 225 nm / 417 km
Max Altitude 0 ft / 0 m
Waypoints 3
Social Downloads 0
Likes 0
Share VATSIM

Download

Looking for another format? Having issues loading an existing format? Contact us
Advertisement - Login to hide

Notes

Generated

Route

EGMC TIPTA EGNT

ID Type Via Altitude Latitude Longitude Leg Dist Tot Dist Heading (true) Name
O EGMC APT - 0 ft / 0 m 51.56725˚ 0.68627˚ - 0 nm - -
TIPTA FIX - 0 ft / 0 m 54.80361˚ -1.61139˚ 211 nm 211 nm 338° / 336° -
O EGNT APT - 0 ft / 0 m 55.03353˚ -1.70634˚ 14 nm 225 nm 347° / 347° -

Altitude Profile

Advertisement - Login to hide

Weather


0- 5 10 15 20 25 30 35+ Temperature / ° C

Clouds and Precipitation
Forecast for 2018-05-22 12:00 UTC. Updated 5 hours ago

Ground ~20,000 ft ~40,000 ft Winds

EGMC

Details ICAO EGMC (SEN)
Name Southend
Region United Kingdom
Timezone Europe/London (UTC+1.0)
Stats Elevation 49 ft / 15 m (AMSL)
Location 51.571443° 0.695583°
Runways 1
Magnetic Variation 0.107° W

METAR

EGMC 221620Z 02011KT CAVOK 22/12 Q1016

Decode

TAF

Not found

Departure Runways

ID Width Length Bearing (true) Bearing (mag) Surface Threshold Offset Overrun Length
06 121 ft / 37 m 5,230 ft / 1,594 m 54.10° 54.21° Asphalt 558 ft / 170 m 0 ft / 0 m
24 121 ft / 37 m 5,230 ft / 1,594 m 234.11° 234.22° Asphalt 466 ft / 142 m 0 ft / 0 m

EGNT

Details ICAO EGNT (NCL)
Name Newcastle
Region United Kingdom
Timezone Europe/London (UTC+1.0)
Stats Elevation 266 ft / 81 m (AMSL)
Location 55.037922° -1.689833°
Runways 1
Magnetic Variation 1.407° W

METAR

EGNT 221620Z 01010KT 9999 BKN011 10/08 Q1024

Decode

TAF

TAF EGNT 221057Z 2212/2312 01012KT 9999 SCT015 PROB40 TEMPO 2212/2218 8000 BKN014 BECMG 2218/2221 6000 BKN005 PROB40 TEMPO 2221/2309 3000 BR BKN003 TEMPO 2310/2312 SCT008 BKN011

Decode

Destination Runways

ID Width Length Bearing (true) Bearing (mag) Surface Threshold Offset Overrun Length
07 151 ft / 46 m 7,621 ft / 2,323 m 65.13° 66.54° Asphalt 394 ft / 120 m 108 ft / 33 m
25 151 ft / 46 m 7,621 ft / 2,323 m 245.16° 246.57° Asphalt 446 ft / 136 m 56 ft / 17 m

Approach Navaids

Runway Type Ident Frequency Range Bearing (true) Bearing (mag) Slope Elevation
07 Localiser INC 111.50 MHz 18 nm / 33 km 65.18° 66.59° - 297 ft / 91 m (AMSL)
07 Glidescope INC 111.50 MHz 10 nm / 19 km 65.15° 66.55° 3.00° 297 ft / 91 m (AMSL)
07 DME INC 111.50 MHz 18 nm / 33 km - - - 256 ft / 78 m (AMSL)
25 Localiser INWC 111.50 MHz 18 nm / 33 km 245.12° 246.52° - 279 ft / 85 m (AMSL)
25 Glidescope INWC 111.50 MHz 10 nm / 19 km 245.15° 246.55° 3.00° 297 ft / 91 m (AMSL)
25 DME INWC 111.50 MHz 18 nm / 33 km - - - 256 ft / 78 m (AMSL)

Popular Alternatives